createdAt,value
2022-12-12T00:00:09.496Z,6.39
2022-12-12T00:02:39.921Z,6.42
2022-12-12T00:05:08.487Z,6.39
2022-12-12T00:07:35.778Z,6.34
2022-12-12T00:10:02.796Z,6.34
2022-12-12T00:12:29.686Z,6.35
2022-12-12T00:14:56.618Z,6.32
2022-12-12T00:17:23.485Z,6.26
2022-12-12T00:19:50.326Z,6.24
2022-12-12T00:22:17.180Z,6.26
2022-12-12T00:24:44.147Z,6.29
2022-12-12T00:27:11.016Z,6.21
2022-12-12T00:29:37.956Z,6.05
2022-12-12T00:32:05.040Z,5.99
2022-12-12T00:34:32.014Z,5.95
2022-12-12T00:36:58.757Z,5.91
2022-12-12T00:39:25.667Z,5.80
2022-12-12T00:41:52.488Z,5.75
2022-12-12T00:44:19.450Z,5.73
2022-12-12T00:46:46.407Z,5.69
2022-12-12T00:49:13.361Z,5.68
2022-12-12T00:51:40.400Z,5.61
2022-12-12T00:54:07.316Z,5.58
2022-12-12T00:56:34.163Z,5.57
2022-12-12T00:59:03.795Z,5.56
2022-12-12T01:01:32.520Z,5.49
2022-12-12T01:03:59.947Z,5.46
2022-12-12T01:06:30.828Z,5.50
2022-12-12T01:08:58.084Z,5.56
2022-12-12T01:11:25.522Z,5.48
2022-12-12T01:13:54.162Z,5.48
2022-12-12T01:16:22.218Z,5.53
2022-12-12T01:18:49.725Z,5.46
2022-12-12T01:21:19.810Z,5.52
2022-12-12T01:23:46.971Z,5.39
2022-12-12T01:26:17.499Z,5.44
2022-12-12T01:28:45.440Z,5.36
2022-12-12T01:31:13.212Z,5.36
2022-12-12T01:33:45.932Z,5.35
2022-12-12T01:36:18.509Z,5.34
2022-12-12T01:38:47.471Z,5.35
2022-12-12T01:41:15.243Z,5.46
2022-12-12T01:43:42.846Z,5.40
2022-12-12T01:46:40.711Z,5.33
2022-12-12T01:49:39.879Z,5.18
2022-12-12T01:52:12.540Z,5.10
2022-12-12T01:54:44.172Z,5.16
2022-12-12T01:57:23.838Z,5.10
2022-12-12T01:59:50.689Z,4.94
2022-12-12T02:02:17.800Z,4.94
2022-12-12T02:04:44.826Z,4.94
2022-12-12T02:07:11.938Z,5.03
2022-12-12T02:09:39.094Z,5.03
2022-12-12T02:12:06.494Z,5.02
2022-12-12T02:14:41.251Z,5.09
2022-12-12T02:17:36.740Z,5.09
2022-12-12T02:20:39.444Z,5.02
2022-12-12T02:23:44.705Z,5.03
2022-12-12T02:26:42.660Z,4.97
2022-12-12T02:29:33.791Z,4.96
2022-12-12T02:32:21.107Z,4.81
2022-12-12T02:35:20.377Z,4.80
2022-12-12T02:38:19.542Z,4.81
2022-12-12T02:40:56.719Z,4.73
2022-12-12T02:43:31.468Z,4.73
2022-12-12T02:46:04.372Z,4.73
2022-12-12T02:48:36.895Z,4.82
2022-12-12T02:51:06.715Z,4.75
2022-12-12T02:53:33.953Z,4.67
2022-12-12T02:56:04.299Z,4.67
2022-12-12T02:58:34.546Z,4.59
2022-12-12T03:01:23.906Z,4.61
2022-12-12T03:04:34.882Z,4.50
2022-12-12T03:07:46.789Z,4.52
2022-12-12T03:10:41.353Z,4.51
2022-12-12T03:27:29.920Z,4.13
2022-12-12T03:30:07.369Z,4.24
2022-12-12T03:32:45.830Z,4.31
2022-12-12T03:35:19.861Z,4.37
2022-12-12T03:37:51.673Z,4.44
2022-12-12T03:40:30.213Z,4.44
2022-12-12T03:43:05.476Z,4.45
2022-12-12T03:45:42.387Z,4.44
2022-12-12T03:48:33.131Z,4.43
2022-12-12T03:51:11.811Z,4.27
2022-12-12T03:53:47.949Z,4.17
2022-12-12T03:56:17.532Z,4.13
2022-12-12T03:58:55.732Z,4.13
2022-12-12T04:01:27.845Z,4.13
2022-12-12T04:04:00.719Z,4.08
2022-12-12T04:06:39.641Z,4.04
2022-12-12T04:09:36.701Z,4.02
2022-12-12T04:12:48.589Z,3.99
2022-12-12T04:15:53.885Z,3.93
2022-12-12T04:18:58.304Z,3.88
2022-12-12T04:22:12.857Z,3.88
2022-12-12T04:24:51.023Z,3.94
2022-12-12T04:27:25.973Z,3.90
2022-12-12T04:30:00.495Z,3.93
2022-12-12T04:32:31.742Z,3.93
2022-12-12T04:35:13.012Z,3.89
2022-12-12T04:37:46.545Z,3.81
2022-12-12T04:40:18.962Z,3.87
2022-12-12T04:42:53.224Z,3.96
2022-12-12T04:45:24.963Z,3.96
2022-12-12T04:47:53.542Z,4.05
2022-12-12T04:50:22.750Z,3.99
2022-12-12T04:52:53.165Z,3.93
2022-12-12T04:55:28.775Z,3.93
2022-12-12T04:57:56.546Z,3.99
2022-12-12T05:00:25.043Z,3.93
2022-12-12T05:03:15.007Z,3.91
2022-12-12T05:05:48.574Z,3.87
2022-12-12T05:08:24.995Z,3.86
2022-12-12T05:10:56.059Z,3.77
2022-12-12T05:13:27.513Z,3.77
2022-12-12T05:15:56.507Z,3.80
2022-12-12T05:18:23.315Z,3.78
2022-12-12T05:20:50.326Z,3.82
2022-12-12T05:23:17.778Z,3.82
2022-12-12T05:25:44.675Z,3.84
2022-12-12T05:28:11.606Z,3.88
2022-12-12T05:30:38.563Z,3.93
2022-12-12T05:33:05.520Z,4.00
2022-12-12T05:35:34.057Z,3.99
2022-12-12T05:38:04.057Z,3.98
2022-12-12T05:40:30.938Z,3.99
2022-12-12T05:42:57.863Z,4.02
2022-12-12T05:45:24.668Z,4.04
2022-12-12T05:47:51.617Z,4.08
2022-12-12T05:50:18.559Z,4.21
2022-12-12T05:52:45.414Z,4.60
2022-12-12T05:55:12.626Z,5.04
2022-12-12T05:57:39.656Z,4.92
2022-12-12T06:00:07.954Z,4.90
2022-12-12T06:02:34.927Z,5.01
2022-12-12T06:05:01.943Z,4.95
2022-12-12T06:07:29.115Z,4.92
2022-12-12T06:09:55.994Z,4.75
2022-12-12T06:12:23.148Z,4.72
2022-12-12T06:14:50.219Z,4.77
2022-12-12T06:17:19.985Z,4.87
2022-12-12T06:19:46.794Z,4.85
2022-12-12T06:22:13.667Z,4.81
2022-12-12T06:24:40.925Z,4.93
2022-12-12T06:27:07.814Z,5.01
2022-12-12T06:29:34.706Z,5.21
2022-12-12T06:32:02.066Z,5.43
2022-12-12T06:34:28.913Z,5.43
2022-12-12T06:36:55.857Z,5.45
2022-12-12T06:39:22.790Z,5.57
2022-12-12T06:41:49.528Z,5.74
2022-12-12T06:44:16.470Z,6.12
2022-12-12T06:46:43.349Z,6.29
2022-12-12T06:49:10.322Z,6.57
2022-12-12T06:51:43.979Z,6.92
2022-12-12T06:54:16.809Z,8.04
2022-12-12T06:56:48.286Z,9.29
2022-12-12T06:59:16.587Z,9.07
2022-12-12T07:01:43.954Z,10.01
2022-12-12T07:04:12.655Z,10.99
2022-12-12T07:06:39.733Z,11.78
2022-12-12T07:09:06.711Z,12.58
2022-12-12T07:11:33.723Z,13.92
2022-12-12T07:14:03.823Z,14.54
2022-12-12T07:16:30.684Z,14.03
2022-12-12T07:18:57.565Z,14.29
2022-12-12T07:21:24.454Z,14.34
2022-12-12T07:23:51.551Z,15.21
2022-12-12T07:26:21.243Z,15.02
2022-12-12T07:28:48.658Z,13.39
2022-12-12T07:31:18.047Z,11.89
2022-12-12T07:33:45.615Z,11.42
2022-12-12T07:36:13.783Z,10.33
2022-12-12T07:38:41.283Z,9.79
2022-12-12T07:41:12.579Z,9.05
2022-12-12T07:43:43.753Z,9.08
2022-12-12T07:46:15.423Z,9.99
2022-12-12T07:48:42.802Z,10.69
2022-12-12T07:51:09.851Z,12.41
2022-12-12T07:53:36.949Z,13.91
2022-12-12T07:56:08.483Z,14.42
2022-12-12T07:58:35.983Z,14.90
2022-12-12T08:01:19.011Z,16.42
2022-12-12T08:03:47.311Z,17.99
2022-12-12T08:06:16.923Z,17.58
2022-12-12T08:08:44.771Z,17.06
2022-12-12T08:11:13.195Z,14.94
2022-12-12T08:13:41.294Z,15.93
2022-12-12T08:16:13.892Z,15.46
2022-12-12T08:18:40.834Z,15.61
2022-12-12T08:21:11.927Z,14.49
2022-12-12T08:23:39.792Z,13.73
2022-12-12T08:26:09.689Z,14.03
2022-12-12T08:28:37.863Z,13.63
2022-12-12T08:31:05.067Z,12.69
2022-12-12T08:33:32.146Z,12.08
2022-12-12T08:35:59.243Z,12.11
2022-12-12T08:38:26.991Z,11.70
2022-12-12T08:40:53.867Z,11.47
2022-12-12T08:43:20.836Z,10.71
2022-12-12T08:45:48.053Z,10.30
2022-12-12T08:48:14.882Z,10.06
2022-12-12T08:50:41.824Z,9.70
2022-12-12T08:53:09.358Z,9.28
2022-12-12T08:55:36.146Z,9.19
2022-12-12T08:58:03.076Z,9.30
2022-12-12T09:00:29.970Z,9.40
2022-12-12T09:02:57.048Z,9.41
2022-12-12T09:05:24.047Z,9.39
2022-12-12T09:07:50.985Z,9.28
2022-12-12T09:10:18.135Z,9.13
2022-12-12T09:12:44.916Z,9.06
2022-12-12T09:15:12.152Z,9.05
2022-12-12T09:17:39.392Z,9.01
2022-12-12T09:20:06.918Z,8.58
2022-12-12T09:22:33.749Z,8.73
2022-12-12T09:25:00.658Z,8.65
2022-12-12T09:27:27.607Z,8.33
2022-12-12T09:29:54.548Z,8.05
2022-12-12T09:32:24.728Z,7.96
2022-12-12T09:34:51.941Z,8.12
2022-12-12T09:37:18.950Z,8.04
2022-12-12T09:39:45.834Z,7.72
2022-12-12T09:42:24.381Z,7.79
2022-12-12T09:44:54.473Z,7.86
2022-12-12T09:47:48.999Z,7.79
2022-12-12T09:50:27.624Z,7.52
2022-12-12T09:52:58.815Z,7.63
2022-12-12T09:55:40.370Z,7.55
2022-12-12T09:58:22.280Z,7.38
2022-12-12T10:01:31.463Z,7.54
2022-12-12T10:04:10.624Z,7.53
2022-12-12T10:07:04.514Z,7.64
2022-12-12T10:09:40.107Z,7.86
2022-12-12T10:12:12.408Z,8.00
2022-12-12T10:14:54.884Z,7.89
2022-12-12T10:17:34.001Z,7.82
2022-12-12T10:20:06.710Z,7.92
2022-12-12T10:22:47.025Z,7.99
2022-12-12T10:26:00.066Z,7.79
2022-12-12T10:28:28.908Z,7.82
2022-12-12T10:31:22.386Z,8.31
2022-12-12T10:34:05.669Z,9.22
2022-12-12T10:37:00.270Z,9.88
2022-12-12T10:39:45.934Z,10.16
2022-12-12T10:42:35.418Z,10.24
2022-12-12T10:45:17.368Z,10.61
2022-12-12T10:47:45.526Z,11.50
2022-12-12T10:50:28.618Z,11.50
2022-12-12T10:52:55.579Z,10.72
2022-12-12T10:55:47.697Z,10.51
2022-12-12T10:58:17.106Z,11.55
2022-12-12T11:00:46.193Z,10.93
2022-12-12T11:03:20.177Z,11.11
2022-12-12T11:05:47.591Z,11.33
2022-12-12T11:08:26.071Z,12.73
2022-12-12T11:11:06.929Z,13.48
2022-12-12T11:13:45.245Z,14.33
2022-12-12T11:16:23.097Z,15.76
2022-12-12T11:19:25.512Z,16.57
2022-12-12T11:21:54.703Z,16.78
2022-12-12T11:24:29.900Z,15.99
2022-12-12T11:27:02.850Z,15.11
2022-12-12T11:29:35.848Z,13.45
2022-12-12T11:32:03.875Z,12.02
2022-12-12T11:34:34.131Z,11.74
2022-12-12T11:37:01.176Z,12.23
2022-12-12T11:39:37.444Z,12.68
2022-12-12T11:42:26.214Z,12.54
2022-12-12T11:45:00.916Z,11.87
2022-12-12T11:47:30.730Z,11.80
2022-12-12T11:50:01.989Z,12.06
2022-12-12T11:52:32.717Z,12.25
2022-12-12T11:55:00.485Z,12.57
2022-12-12T11:57:27.217Z,12.93
2022-12-12T12:00:11.810Z,13.03
2022-12-12T12:02:38.482Z,12.30
2022-12-12T12:05:36.367Z,11.56
2022-12-12T12:08:24.885Z,11.39
2022-12-12T12:10:57.818Z,11.34
2022-12-12T12:13:45.846Z,10.89
2022-12-12T12:16:23.488Z,10.57
2022-12-12T12:19:27.574Z,10.44
2022-12-12T12:22:35.760Z,10.36
2022-12-12T12:25:15.132Z,10.29
2022-12-12T12:28:13.728Z,10.64
2022-12-12T12:30:56.433Z,10.45
2022-12-12T12:33:41.933Z,11.08
2022-12-12T12:36:21.494Z,11.12
2022-12-12T12:39:22.395Z,11.76
2022-12-12T12:42:01.288Z,12.06
2022-12-12T12:45:07.326Z,12.21
2022-12-12T12:47:56.219Z,12.15
2022-12-12T12:50:47.229Z,11.85
2022-12-12T12:53:36.810Z,11.26
2022-12-12T12:56:26.706Z,11.03
2022-12-12T12:58:58.342Z,11.07
2022-12-12T13:01:31.288Z,10.78
2022-12-12T13:04:10.378Z,10.57
2022-12-12T13:06:51.674Z,10.52
2022-12-12T13:09:35.300Z,10.78
2022-12-12T13:12:12.180Z,10.61
2022-12-12T13:14:59.815Z,10.49
2022-12-12T13:17:43.668Z,10.62
2022-12-12T13:20:19.926Z,10.38
2022-12-12T13:22:58.692Z,10.15
2022-12-12T13:25:50.894Z,9.71
2022-12-12T13:28:46.466Z,9.63
2022-12-12T13:31:39.396Z,9.70
2022-12-12T13:34:17.293Z,9.59
2022-12-12T13:36:48.533Z,9.43
2022-12-12T13:39:41.671Z,9.22
2022-12-12T13:42:10.741Z,9.16
2022-12-12T13:44:40.743Z,9.03
2022-12-12T13:47:22.545Z,8.87
2022-12-12T13:49:59.580Z,8.68
2022-12-12T13:52:34.931Z,8.49
2022-12-12T13:55:22.651Z,8.40
2022-12-12T13:58:02.798Z,8.39
2022-12-12T14:00:34.242Z,8.49
2022-12-12T14:03:27.633Z,8.43
2022-12-12T14:05:55.463Z,8.45
2022-12-12T14:08:30.812Z,8.39
2022-12-12T14:11:03.680Z,8.38
2022-12-12T14:13:45.554Z,8.24
2022-12-12T14:16:25.156Z,8.14
2022-12-12T14:18:52.251Z,8.07
2022-12-12T14:21:21.616Z,7.91
2022-12-12T14:23:53.143Z,7.99
2022-12-12T14:26:29.048Z,7.89
2022-12-12T14:29:17.760Z,7.75
2022-12-12T14:31:56.568Z,7.78
2022-12-12T14:34:30.048Z,7.85
2022-12-12T14:37:14.978Z,7.91
2022-12-12T14:39:59.992Z,8.03
2022-12-12T14:43:20.815Z,8.08
2022-12-12T14:45:38.209Z,8.07
2022-12-12T14:48:08.835Z,8.02
2022-12-12T14:50:37.426Z,8.02
2022-12-12T14:53:12.493Z,7.94
2022-12-12T14:55:47.635Z,7.94
2022-12-12T14:58:18.793Z,7.83
2022-12-12T15:00:52.435Z,7.84
2022-12-12T15:03:25.256Z,7.69
2022-12-12T15:06:29.678Z,7.64
2022-12-12T15:09:06.825Z,7.70
2022-12-12T15:11:34.575Z,7.75
2022-12-12T15:14:04.167Z,7.77
2022-12-12T15:29:17.309Z,6.87
2022-12-12T15:31:46.287Z,6.97
2022-12-12T15:34:29.350Z,7.05
2022-12-12T15:36:56.286Z,7.14
2022-12-12T15:39:23.109Z,7.26
2022-12-12T15:41:50.508Z,7.27
2022-12-12T15:44:20.779Z,7.45
2022-12-12T15:46:50.418Z,7.54
2022-12-12T15:49:40.949Z,7.55
2022-12-12T15:52:16.779Z,7.67
2022-12-12T15:54:56.596Z,7.68
2022-12-12T15:57:34.430Z,7.77
2022-12-12T16:00:05.785Z,7.79
2022-12-12T16:02:35.564Z,7.74
2022-12-12T16:05:07.376Z,7.78
2022-12-12T16:07:37.693Z,7.77
2022-12-12T16:10:23.964Z,7.67
2022-12-12T16:13:04.269Z,7.56
2022-12-12T16:15:38.211Z,7.46
2022-12-12T16:18:18.488Z,7.46
2022-12-12T16:20:49.551Z,7.46
2022-12-12T16:23:27.160Z,7.42
2022-12-12T16:25:54.746Z,7.34
2022-12-12T16:28:26.773Z,7.29
2022-12-12T16:31:00.105Z,7.21
2022-12-12T16:33:32.183Z,7.21
2022-12-12T16:36:02.096Z,7.17
2022-12-12T16:38:30.494Z,7.00
2022-12-12T16:41:00.853Z,7.00
2022-12-12T16:43:28.086Z,6.88
2022-12-12T16:45:56.848Z,6.77
2022-12-12T16:48:27.273Z,6.73
2022-12-12T16:51:00.888Z,6.75
2022-12-12T16:53:27.759Z,6.80
2022-12-12T16:55:55.187Z,6.77
2022-12-12T16:58:22.062Z,6.70
2022-12-12T17:00:50.225Z,6.60
2022-12-12T17:03:17.486Z,6.63
2022-12-12T17:05:46.146Z,6.65
2022-12-12T17:08:15.431Z,6.54
2022-12-12T17:10:44.113Z,6.49
2022-12-12T17:13:18.903Z,6.54
2022-12-12T17:15:46.660Z,6.60
2022-12-12T17:18:13.711Z,6.61
2022-12-12T17:20:40.914Z,6.61
2022-12-12T17:23:29.550Z,6.48
2022-12-12T17:26:02.921Z,6.52
2022-12-12T17:28:32.372Z,6.56
2022-12-12T17:30:59.337Z,6.45
2022-12-12T17:33:26.771Z,6.43
2022-12-12T17:36:01.070Z,6.47
2022-12-12T17:38:28.196Z,6.51
2022-12-12T17:40:56.889Z,6.54
2022-12-12T17:43:25.104Z,6.59
2022-12-12T17:46:04.022Z,6.47
2022-12-12T17:48:33.303Z,6.58
2022-12-12T17:51:02.178Z,6.55
2022-12-12T17:53:38.475Z,6.46
2022-12-12T17:56:11.841Z,6.38
2022-12-12T17:58:41.132Z,6.49
2022-12-12T18:01:12.919Z,6.53
2022-12-12T18:03:40.298Z,6.56
2022-12-12T18:06:09.184Z,6.46
2022-12-12T18:08:37.393Z,6.48
2022-12-12T18:11:09.119Z,6.48
2022-12-12T18:13:38.738Z,6.50
2022-12-12T18:16:07.419Z,6.50
2022-12-12T18:18:34.732Z,6.47
2022-12-12T18:21:29.243Z,6.36
2022-12-12T18:24:03.546Z,6.39
2022-12-12T18:26:30.472Z,6.45
2022-12-12T18:29:00.932Z,6.45
2022-12-12T18:31:29.121Z,6.54
2022-12-12T18:33:56.548Z,6.52
2022-12-12T18:36:29.158Z,6.48
2022-12-12T18:38:57.717Z,6.66
2022-12-12T18:41:24.809Z,6.69
2022-12-12T18:43:51.790Z,6.77
2022-12-12T18:46:20.936Z,6.73
2022-12-12T18:48:48.804Z,6.56
2022-12-12T18:51:18.490Z,6.60
2022-12-12T18:53:46.398Z,6.72
2022-12-12T18:56:16.901Z,6.81
2022-12-12T18:58:43.815Z,6.81
2022-12-12T19:01:14.129Z,6.76
2022-12-12T19:03:42.646Z,6.87
2022-12-12T19:06:15.212Z,6.89
2022-12-12T19:08:42.987Z,6.81
2022-12-12T19:11:11.316Z,6.88
2022-12-12T19:13:38.251Z,7.02
2022-12-12T19:16:14.492Z,7.10
2022-12-12T19:18:42.137Z,7.07
2022-12-12T19:21:11.446Z,6.90
2022-12-12T19:23:39.627Z,6.83
2022-12-12T19:26:28.195Z,7.03
2022-12-12T19:29:00.011Z,7.14
2022-12-12T19:31:27.325Z,6.97
2022-12-12T19:33:54.679Z,7.12
2022-12-12T19:36:24.769Z,7.18
2022-12-12T19:38:52.488Z,7.16
2022-12-12T19:41:21.790Z,7.19
2022-12-12T19:43:53.102Z,7.29
2022-12-12T19:46:25.974Z,7.14
2022-12-12T19:48:57.806Z,7.15
2022-12-12T19:51:26.586Z,7.22
2022-12-12T19:53:56.005Z,7.35
2022-12-12T19:56:31.039Z,7.18
2022-12-12T19:58:59.195Z,7.18
2022-12-12T20:01:29.220Z,7.07
2022-12-12T20:03:59.002Z,7.26
2022-12-12T20:06:27.699Z,7.12
2022-12-12T20:08:57.451Z,7.15
2022-12-12T20:11:24.878Z,7.05
2022-12-12T20:13:54.006Z,7.11
2022-12-12T20:16:23.892Z,7.28
2022-12-12T20:18:51.450Z,7.31
2022-12-12T20:21:51.767Z,7.40
2022-12-12T20:24:09.690Z,7.42
2022-12-12T20:26:37.393Z,7.53
2022-12-12T20:29:04.335Z,7.66
2022-12-12T20:31:34.617Z,7.39
2022-12-12T20:34:01.969Z,7.48
2022-12-12T20:36:31.535Z,7.39
2022-12-12T20:39:00.631Z,7.31
2022-12-12T20:41:38.305Z,7.19
2022-12-12T20:44:06.974Z,7.01
2022-12-12T20:46:39.406Z,6.81
2022-12-12T20:49:09.662Z,6.65
2022-12-12T20:54:24.563Z,6.13
2022-12-12T20:56:52.793Z,5.95
2022-12-12T20:59:19.739Z,5.82
2022-12-12T21:01:47.648Z,5.68
2022-12-12T21:04:15.509Z,5.47
2022-12-12T21:06:51.519Z,5.40
2022-12-12T21:09:24.298Z,5.34
2022-12-12T21:11:53.271Z,5.29
2022-12-12T21:14:20.014Z,5.21
2022-12-12T21:16:47.063Z,5.10
2022-12-12T21:19:14.592Z,5.19
2022-12-12T21:21:43.314Z,5.16
2022-12-12T21:24:15.200Z,5.09
2022-12-12T21:26:42.152Z,5.04
2022-12-12T21:29:09.102Z,4.94
2022-12-12T21:31:43.464Z,4.96
2022-12-12T21:34:13.635Z,4.90
2022-12-12T21:36:40.492Z,4.91
2022-12-12T21:39:07.641Z,4.82
2022-12-12T21:41:35.404Z,4.84
2022-12-12T21:44:02.192Z,4.76
2022-12-12T21:46:30.203Z,4.73
2022-12-12T21:49:16.637Z,4.62
2022-12-12T21:51:43.786Z,4.52
2022-12-12T21:54:13.236Z,4.47
2022-12-12T21:56:41.541Z,4.37
2022-12-12T21:59:08.846Z,4.28
2022-12-12T22:01:36.297Z,4.08
2022-12-12T22:04:03.288Z,3.99
2022-12-12T22:06:33.369Z,3.98
2022-12-12T22:09:01.845Z,3.94
2022-12-12T22:11:42.318Z,3.86
2022-12-12T22:14:17.783Z,3.83
2022-12-12T22:16:45.043Z,3.86
2022-12-12T22:19:13.787Z,3.83
2022-12-12T22:21:40.631Z,3.73
2022-12-12T22:24:07.918Z,3.71
2022-12-12T22:26:37.286Z,3.70
2022-12-12T22:29:06.932Z,3.74
2022-12-12T22:31:37.441Z,3.65
2022-12-12T22:34:10.582Z,3.63
2022-12-12T22:36:39.041Z,3.54
2022-12-12T22:39:07.804Z,3.46
2022-12-12T22:41:34.678Z,3.32
2022-12-12T22:44:04.136Z,3.30
2022-12-12T22:46:32.296Z,3.35
2022-12-12T22:49:02.318Z,3.31
2022-12-12T22:51:31.753Z,3.28
2022-12-12T22:54:00.855Z,3.27
2022-12-12T22:56:30.511Z,3.22
2022-12-12T22:58:57.651Z,3.25
2022-12-12T23:01:26.702Z,3.23
2022-12-12T23:03:54.328Z,3.20
2022-12-12T23:06:22.678Z,3.05
2022-12-12T23:08:51.997Z,2.99
2022-12-12T23:11:20.276Z,3.00
2022-12-12T23:13:47.301Z,3.04
2022-12-12T23:16:20.539Z,3.09
2022-12-12T23:18:48.565Z,3.02
2022-12-12T23:21:18.975Z,3.11
2022-12-12T23:23:46.370Z,3.05
2022-12-12T23:26:18.974Z,3.00
2022-12-12T23:28:46.556Z,2.94
2022-12-12T23:31:20.555Z,2.96
2022-12-12T23:33:48.264Z,2.92
2022-12-12T23:36:15.838Z,2.84
2022-12-12T23:38:45.180Z,2.82
2022-12-12T23:41:14.816Z,2.81
2022-12-12T23:43:42.522Z,2.69
2022-12-12T23:46:28.479Z,2.71
2022-12-12T23:48:55.708Z,2.76
2022-12-12T23:51:24.442Z,2.72
2022-12-12T23:53:51.687Z,2.69
2022-12-12T23:56:20.038Z,2.74
2022-12-12T23:58:46.816Z,2.82
